createdAt,value
2019-02-24T00:01:20.980Z,99189.30
2019-02-24T00:03:47.571Z,99191.64
2019-02-24T00:06:15.805Z,99190.95
2019-02-24T00:08:42.611Z,99188.91
2019-02-24T00:11:09.879Z,99188.23
2019-02-24T00:13:36.400Z,99195.52
2019-02-24T00:16:02.882Z,99196.16
2019-02-24T00:18:29.620Z,99194.12
2019-02-24T00:20:56.030Z,99190.14
2019-02-24T00:23:22.469Z,99178.69
2019-02-24T00:25:48.882Z,99182.56
2019-02-24T00:28:15.350Z,99172.80
2019-02-24T00:30:41.899Z,99167.42
2019-02-24T00:33:08.522Z,99160.39
2019-02-24T00:35:34.967Z,99157.66
2019-02-24T00:38:01.203Z,99168.95
2019-02-24T00:40:27.609Z,99171.29
2019-02-24T00:42:54.051Z,99169.96
2019-02-24T00:45:20.471Z,99176.78
2019-02-24T00:47:46.860Z,99166.62
2019-02-24T00:50:13.555Z,99160.58
2019-02-24T00:52:39.986Z,99148.59
2019-02-24T00:55:06.693Z,99150.17
2019-02-24T00:57:33.018Z,99151.42
2019-02-24T00:59:59.606Z,99153.08
2019-02-24T01:02:26.026Z,99148.73
2019-02-24T01:04:52.667Z,99134.38
2019-02-24T01:07:19.300Z,99125.52
2019-02-24T01:09:45.743Z,99129.25
2019-02-24T01:12:12.147Z,99141.76
2019-02-24T01:14:38.810Z,99133.06
2019-02-24T01:17:05.127Z,99120.66
2019-02-24T01:19:31.524Z,99124.75
2019-02-24T01:21:57.962Z,99118.25
2019-02-24T01:24:24.295Z,99110.02
2019-02-24T01:26:51.073Z,99101.17
2019-02-24T01:29:17.410Z,99103.46
2019-02-24T01:31:43.798Z,99112.86
2019-02-24T01:34:10.290Z,99105.34
2019-02-24T01:36:36.679Z,99098.11
2019-02-24T01:39:03.905Z,99097.84
2019-02-24T01:41:30.323Z,99095.45
2019-02-24T01:43:56.622Z,99085.05
2019-02-24T01:46:23.271Z,99086.64
2019-02-24T01:48:49.655Z,99092.50
2019-02-24T01:51:16.150Z,99088.11
2019-02-24T01:53:42.513Z,99087.37
2019-02-24T01:56:08.910Z,99079.36
2019-02-24T01:58:35.533Z,99085.37
2019-02-24T02:01:02.201Z,99077.71
2019-02-24T02:03:28.799Z,99085.91
2019-02-24T02:05:55.199Z,99080.91
2019-02-24T02:08:21.819Z,99077.94
2019-02-24T02:10:48.500Z,99075.91
2019-02-24T02:13:15.138Z,99070.83
2019-02-24T02:15:41.600Z,99070.95
2019-02-24T02:18:07.961Z,99070.13
2019-02-24T02:20:34.536Z,99068.48
2019-02-24T02:23:00.937Z,99075.22
2019-02-24T02:25:27.387Z,99068.58
2019-02-24T02:27:53.842Z,99071.45
2019-02-24T02:30:20.351Z,99069.16
2019-02-24T02:32:46.910Z,99057.45
2019-02-24T02:35:13.238Z,99055.20
2019-02-24T02:37:39.795Z,99052.66
2019-02-24T02:40:07.209Z,99050.09
2019-02-24T02:42:33.547Z,99043.57
2019-02-24T02:45:00.030Z,99043.06
2019-02-24T02:47:26.415Z,99040.72
2019-02-24T02:49:52.969Z,99039.71
2019-02-24T02:52:19.579Z,99035.53
2019-02-24T02:54:45.966Z,99040.34
2019-02-24T02:57:12.367Z,99023.84
2019-02-24T02:59:38.884Z,99007.09
2019-02-24T03:02:05.378Z,99009.75
2019-02-24T03:04:31.901Z,99008.20
2019-02-24T03:07:18.361Z,99011.17
2019-02-24T03:09:44.587Z,99006.87
2019-02-24T03:12:11.068Z,98999.70
2019-02-24T03:14:37.499Z,99009.66
2019-02-24T03:17:04.032Z,99003.63
2019-02-24T03:19:30.520Z,99000.97
2019-02-24T03:21:56.946Z,98998.70
2019-02-24T03:24:23.331Z,99001.23
2019-02-24T03:26:50.103Z,98987.02
2019-02-24T03:29:16.401Z,98982.41
2019-02-24T03:31:42.724Z,98982.00
2019-02-24T03:34:09.198Z,98979.84
2019-02-24T03:36:35.829Z,98981.24
2019-02-24T03:39:02.415Z,98980.33
2019-02-24T03:41:28.806Z,98981.84
2019-02-24T03:43:55.380Z,98981.34
2019-02-24T03:46:21.813Z,98989.72
2019-02-24T03:48:48.208Z,98991.18
2019-02-24T03:51:14.531Z,99004.50
2019-02-24T03:53:40.935Z,99003.00
2019-02-24T03:56:07.362Z,98995.97
2019-02-24T03:58:33.806Z,98991.24
2019-02-24T04:01:00.512Z,98993.52
2019-02-24T04:03:27.115Z,99004.16
2019-02-24T04:05:53.507Z,99009.67
2019-02-24T04:08:20.116Z,99004.04
2019-02-24T04:10:46.689Z,98994.53
2019-02-24T04:13:13.026Z,99001.63
2019-02-24T04:15:39.406Z,99003.27
2019-02-24T04:18:05.803Z,99013.28
2019-02-24T04:20:32.485Z,99018.60
2019-02-24T04:22:58.891Z,99021.89
2019-02-24T04:25:25.218Z,99024.26
2019-02-24T04:27:51.606Z,99026.11
2019-02-24T04:30:18.054Z,99029.61
2019-02-24T04:32:44.343Z,99017.14
2019-02-24T04:35:10.673Z,99019.73
2019-02-24T04:37:37.226Z,99012.88
2019-02-24T04:40:06.327Z,99009.17
2019-02-24T04:42:32.706Z,99006.00
2019-02-24T04:44:59.019Z,99003.56
2019-02-24T04:47:25.319Z,99012.97
2019-02-24T04:49:51.830Z,99004.47
2019-02-24T04:52:18.436Z,99004.47
2019-02-24T04:54:44.737Z,99011.25
2019-02-24T04:57:11.436Z,99011.56
2019-02-24T04:59:38.010Z,99019.44
2019-02-24T05:02:04.344Z,99008.91
2019-02-24T05:04:30.722Z,99006.14
2019-02-24T05:06:57.178Z,99005.74
2019-02-24T05:09:23.759Z,99007.19
2019-02-24T05:11:50.245Z,99002.77
2019-02-24T05:14:16.568Z,98997.64
2019-02-24T05:16:43.023Z,98995.72
2019-02-24T05:19:09.474Z,99001.75
2019-02-24T05:21:35.772Z,99006.64
2019-02-24T05:24:02.197Z,99003.89
2019-02-24T05:26:28.600Z,99008.67
2019-02-24T05:28:54.923Z,99011.05
2019-02-24T05:31:21.208Z,99003.27
2019-02-24T05:33:47.658Z,98999.27
2019-02-24T05:36:14.091Z,99003.14
2019-02-24T05:38:40.486Z,99002.64
2019-02-24T05:41:06.946Z,98996.69
2019-02-24T05:43:33.480Z,99005.69
2019-02-24T05:45:59.862Z,99019.00
2019-02-24T05:48:26.632Z,99011.33
2019-02-24T05:50:53.125Z,99011.56
2019-02-24T05:53:19.519Z,99008.16
2019-02-24T05:55:46.028Z,99012.39
2019-02-24T05:58:12.466Z,99005.55
2019-02-24T06:00:38.999Z,99003.98
2019-02-24T06:03:05.391Z,98995.72
2019-02-24T06:05:31.801Z,98998.38
2019-02-24T06:07:58.127Z,99002.96
2019-02-24T06:10:24.627Z,98999.20
2019-02-24T06:12:51.083Z,98997.45
2019-02-24T06:15:17.798Z,98995.09
2019-02-24T06:17:44.204Z,99001.05
2019-02-24T06:20:10.718Z,98990.70
2019-02-24T06:22:37.039Z,98994.20
2019-02-24T06:25:04.866Z,98993.45
2019-02-24T06:27:31.431Z,98991.73
2019-02-24T06:30:04.499Z,98988.55
2019-02-24T06:32:26.038Z,98983.22
2019-02-24T06:34:52.335Z,98975.86
2019-02-24T06:37:18.791Z,98980.47
2019-02-24T06:39:45.188Z,98976.87
2019-02-24T06:42:11.719Z,98983.02
2019-02-24T06:44:38.485Z,98981.59
2019-02-24T06:47:05.046Z,98985.59
2019-02-24T06:49:31.396Z,98987.31
2019-02-24T06:51:57.774Z,98991.53
2019-02-24T06:54:24.365Z,98990.19
2019-02-24T06:56:50.647Z,98981.46
2019-02-24T06:59:17.034Z,98980.63
2019-02-24T07:01:43.401Z,98976.30
2019-02-24T07:04:09.807Z,98971.70
2019-02-24T07:06:36.290Z,98967.56
2019-02-24T07:09:03.323Z,98966.13
2019-02-24T07:11:29.723Z,98961.80
2019-02-24T07:13:56.029Z,98952.58
2019-02-24T07:16:22.306Z,98953.47
2019-02-24T07:18:50.488Z,98960.75
2019-02-24T07:21:16.962Z,98961.67
2019-02-24T07:23:43.450Z,98958.88
2019-02-24T07:26:09.780Z,98965.45
2019-02-24T07:28:36.590Z,98961.44
2019-02-24T07:31:03.018Z,98966.34
2019-02-24T07:33:29.304Z,98969.93
2019-02-24T07:35:55.819Z,98968.16
2019-02-24T07:38:22.106Z,98957.37
2019-02-24T07:40:48.426Z,98954.57
2019-02-24T07:43:14.717Z,98941.94
2019-02-24T07:45:41.151Z,98949.74
2019-02-24T07:48:07.547Z,98943.75
2019-02-24T07:50:33.935Z,98946.83
2019-02-24T07:53:00.401Z,98936.53
2019-02-24T07:55:26.768Z,98936.48
2019-02-24T07:57:53.175Z,98932.37
2019-02-24T08:00:19.597Z,98930.89
2019-02-24T08:02:45.917Z,98924.00
2019-02-24T08:05:12.374Z,98926.88
2019-02-24T08:07:38.828Z,98931.50
2019-02-24T08:10:06.498Z,98938.27
2019-02-24T08:12:33.237Z,98933.41
2019-02-24T08:14:59.637Z,98929.65
2019-02-24T08:17:25.979Z,98930.42
2019-02-24T08:19:52.435Z,98925.84
2019-02-24T08:22:18.867Z,98923.57
2019-02-24T08:24:45.358Z,98931.23
2019-02-24T08:27:11.726Z,98927.31
2019-02-24T08:29:38.090Z,98924.48
2019-02-24T08:32:04.620Z,98930.08
2019-02-24T08:34:30.988Z,98929.20
2019-02-24T08:36:57.614Z,98921.57
2019-02-24T08:39:23.933Z,98917.34
2019-02-24T08:41:50.261Z,98917.05
2019-02-24T08:44:16.545Z,98921.36
2019-02-24T08:46:42.975Z,98917.95
2019-02-24T08:49:09.363Z,98916.10
2019-02-24T08:51:36.261Z,98927.46
2019-02-24T08:54:02.648Z,98925.45
2019-02-24T08:56:29.090Z,98923.17
2019-02-24T08:58:55.458Z,98920.34
2019-02-24T09:01:22.031Z,98928.84
2019-02-24T09:03:48.502Z,98922.81
2019-02-24T09:06:14.827Z,98927.73
2019-02-24T09:08:41.220Z,98921.92
2019-02-24T09:11:07.589Z,98924.17
2019-02-24T09:13:33.881Z,98920.67
2019-02-24T09:16:00.303Z,98919.55
2019-02-24T09:18:26.704Z,98923.56
2019-02-24T09:20:53.173Z,98913.38
2019-02-24T09:23:19.608Z,98916.44
2019-02-24T09:25:46.279Z,98919.17
2019-02-24T09:28:12.581Z,98914.13
2019-02-24T09:30:38.879Z,98911.45
2019-02-24T09:33:05.313Z,98912.14
2019-02-24T09:35:31.703Z,98919.78
2019-02-24T09:37:57.998Z,98920.44
2019-02-24T09:40:24.434Z,98926.70
2019-02-24T09:42:50.871Z,98936.72
2019-02-24T09:45:17.182Z,98937.78
2019-02-24T09:47:46.645Z,98944.74
2019-02-24T09:50:11.958Z,98941.64
2019-02-24T09:52:38.367Z,98946.55
2019-02-24T09:55:08.423Z,98942.02
2019-02-24T09:57:36.931Z,98946.98
2019-02-24T10:00:12.449Z,98940.66
2019-02-24T10:02:39.070Z,98946.98
2019-02-24T10:05:05.877Z,98956.80
2019-02-24T10:07:32.274Z,98950.75
2019-02-24T10:09:58.855Z,98940.20
2019-02-24T10:12:25.430Z,98927.17
2019-02-24T10:14:51.927Z,98938.48
2019-02-24T10:17:18.603Z,98938.04
2019-02-24T10:19:44.923Z,98944.05
2019-02-24T10:22:11.378Z,98950.52
2019-02-24T10:24:38.061Z,98954.02
2019-02-24T10:27:04.345Z,98951.55
2019-02-24T10:29:30.781Z,98955.88
2019-02-24T10:31:57.174Z,98957.52
2019-02-24T10:34:23.535Z,98959.42
2019-02-24T10:36:50.082Z,98958.91
2019-02-24T10:39:16.618Z,98965.67
2019-02-24T10:41:43.054Z,98957.77
2019-02-24T10:44:09.456Z,98956.63
2019-02-24T10:46:35.861Z,98958.73
2019-02-24T10:49:03.618Z,98963.69
2019-02-24T10:51:30.279Z,98963.81
2019-02-24T10:53:56.571Z,98947.52
2019-02-24T10:56:23.019Z,98942.97
2019-02-24T10:58:49.718Z,98941.63
2019-02-24T11:01:16.117Z,98942.08
2019-02-24T11:03:42.646Z,98941.52
2019-02-24T11:06:08.931Z,98940.73
2019-02-24T11:08:35.496Z,98936.56
2019-02-24T11:11:01.991Z,98932.89
2019-02-24T11:13:28.487Z,98923.88
2019-02-24T11:15:54.784Z,98918.08
2019-02-24T11:18:21.282Z,98914.62
2019-02-24T11:20:47.669Z,98905.02
2019-02-24T11:23:14.036Z,98901.52
2019-02-24T11:25:40.451Z,98899.02
2019-02-24T11:28:06.942Z,98911.08
2019-02-24T11:30:33.274Z,98911.42
2019-02-24T11:32:59.628Z,98914.47
2019-02-24T11:35:26.210Z,98916.67
2019-02-24T11:37:52.626Z,98919.94
2019-02-24T11:40:19.025Z,98910.11
2019-02-24T11:42:45.441Z,98911.49
2019-02-24T11:45:11.963Z,98906.13
2019-02-24T11:47:38.374Z,98892.57
2019-02-24T11:50:10.634Z,98882.77
2019-02-24T11:52:37.046Z,98876.95
2019-02-24T11:55:04.871Z,98879.81
2019-02-24T11:57:31.190Z,98875.96
2019-02-24T11:59:57.710Z,98875.61
2019-02-24T12:02:24.109Z,98876.01
2019-02-24T12:04:50.556Z,98876.47
2019-02-24T12:07:16.942Z,98873.84
2019-02-24T12:09:43.337Z,98866.65
2019-02-24T12:12:09.792Z,98872.67
2019-02-24T12:14:36.232Z,98869.50
2019-02-24T12:17:02.538Z,98871.19
2019-02-24T12:19:28.933Z,98865.92
2019-02-24T12:21:55.275Z,98858.22
2019-02-24T12:24:21.634Z,98858.55
2019-02-24T12:26:48.285Z,98854.58
2019-02-24T12:29:14.680Z,98854.94
2019-02-24T12:31:41.115Z,98850.91
2019-02-24T12:34:07.402Z,98851.52
2019-02-24T12:36:33.826Z,98849.42
2019-02-24T12:39:00.191Z,98852.43
2019-02-24T12:41:26.745Z,98846.36
2019-02-24T12:43:53.293Z,98847.27
2019-02-24T12:46:20.205Z,98847.12
2019-02-24T12:48:46.773Z,98843.17
2019-02-24T12:51:13.161Z,98839.31
2019-02-24T12:53:39.657Z,98841.80
2019-02-24T12:56:06.046Z,98842.16
2019-02-24T12:58:32.405Z,98840.72
2019-02-24T13:00:58.869Z,98835.19
2019-02-24T13:03:25.399Z,98835.81
2019-02-24T13:05:59.430Z,98840.16
2019-02-24T13:08:25.771Z,98836.23
2019-02-24T13:10:52.178Z,98836.36
2019-02-24T13:13:18.558Z,98838.25
2019-02-24T13:15:44.936Z,98839.19
2019-02-24T13:18:11.544Z,98834.20
2019-02-24T13:20:38.046Z,98831.62
2019-02-24T13:23:04.354Z,98831.45
2019-02-24T13:25:30.741Z,98836.03
2019-02-24T13:27:57.266Z,98827.73
2019-02-24T13:30:23.755Z,98833.92
2019-02-24T13:32:50.118Z,98831.00
2019-02-24T13:35:16.416Z,98842.28
2019-02-24T13:37:42.943Z,98843.09
2019-02-24T13:40:13.843Z,98838.59
2019-02-24T13:42:40.346Z,98837.36
2019-02-24T13:45:16.136Z,98838.00
2019-02-24T13:47:42.449Z,98832.19
2019-02-24T13:50:09.054Z,98830.13
2019-02-24T13:52:35.580Z,98828.11
2019-02-24T13:55:02.583Z,98822.53
2019-02-24T13:57:28.910Z,98828.02
2019-02-24T13:59:55.290Z,98826.77
2019-02-24T14:02:24.128Z,98826.33
2019-02-24T14:04:49.970Z,98823.76
2019-02-24T14:07:16.474Z,98825.44
2019-02-24T14:09:42.768Z,98825.20
2019-02-24T14:12:09.123Z,98819.32
2019-02-24T14:14:35.582Z,98815.31
2019-02-24T14:17:02.147Z,98811.56
2019-02-24T14:19:28.636Z,98811.00
2019-02-24T14:21:55.083Z,98810.38
2019-02-24T14:24:21.512Z,98813.31
2019-02-24T14:26:47.936Z,98810.55
2019-02-24T14:29:14.288Z,98809.16
2019-02-24T14:31:40.725Z,98812.34
2019-02-24T14:34:07.115Z,98817.47
2019-02-24T14:36:33.939Z,98819.11
2019-02-24T14:39:00.251Z,98804.63
2019-02-24T14:41:26.586Z,98806.02
2019-02-24T14:43:53.080Z,98811.45
2019-02-24T14:46:19.545Z,98811.80
2019-02-24T14:48:45.945Z,98818.34
2019-02-24T14:51:12.587Z,98818.88
2019-02-24T14:53:39.057Z,98822.14
2019-02-24T14:56:05.353Z,98818.63
2019-02-24T14:58:33.744Z,98818.63
2019-02-24T15:01:00.842Z,98812.70
2019-02-24T15:03:27.599Z,98811.84
2019-02-24T15:05:54.062Z,98813.69
2019-02-24T15:08:20.373Z,98810.67
2019-02-24T15:10:48.248Z,98808.17
2019-02-24T15:13:14.990Z,98804.83
2019-02-24T15:15:41.281Z,98806.33
2019-02-24T15:18:07.720Z,98802.45
2019-02-24T15:20:34.290Z,98802.91
2019-02-24T15:23:00.584Z,98806.30
2019-02-24T15:25:26.990Z,98808.36
2019-02-24T15:27:53.378Z,98798.36
2019-02-24T15:30:33.370Z,98800.70
2019-02-24T15:32:59.892Z,98806.53
2019-02-24T15:35:26.662Z,98798.39
2019-02-24T15:37:53.098Z,98805.06
2019-02-24T15:40:19.675Z,98807.66
2019-02-24T15:42:46.414Z,98809.23
2019-02-24T15:45:12.796Z,98813.46
2019-02-24T15:47:39.142Z,98812.34
2019-02-24T15:50:10.923Z,98812.82
2019-02-24T15:52:37.296Z,98816.26
2019-02-24T15:55:07.624Z,98820.77
2019-02-24T15:57:34.125Z,98820.18
2019-02-24T16:00:00.468Z,98825.27
2019-02-24T16:02:28.595Z,98829.25
2019-02-24T16:04:55.184Z,98829.78
2019-02-24T16:07:21.702Z,98832.18
2019-02-24T16:09:48.135Z,98831.63
2019-02-24T16:12:14.594Z,98834.80
2019-02-24T16:14:41.138Z,98829.38
2019-02-24T16:17:07.658Z,98820.23
2019-02-24T16:19:34.059Z,98819.65
2019-02-24T16:22:00.663Z,98812.64
2019-02-24T16:24:27.067Z,98801.81
2019-02-24T16:26:53.394Z,98801.81
2019-02-24T16:29:19.737Z,98801.23
2019-02-24T16:31:46.294Z,98802.58
2019-02-24T16:34:12.666Z,98804.16
2019-02-24T16:36:39.056Z,98808.72
2019-02-24T16:39:05.691Z,98802.77
2019-02-24T16:41:31.984Z,98797.39
2019-02-24T16:43:58.335Z,98799.00
2019-02-24T16:46:24.629Z,98797.13
2019-02-24T16:48:51.302Z,98797.39
2019-02-24T16:51:17.692Z,98803.59
2019-02-24T16:53:44.268Z,98797.16
2019-02-24T16:56:10.597Z,98789.91
2019-02-24T16:58:36.915Z,98789.63
2019-02-24T17:01:03.420Z,98789.63
2019-02-24T17:03:29.966Z,98785.59
2019-02-24T17:05:56.678Z,98794.47
2019-02-24T17:08:23.123Z,98802.53
2019-02-24T17:11:12.717Z,98791.78
2019-02-24T17:13:48.698Z,98792.59
2019-02-24T17:16:14.913Z,98793.41
2019-02-24T17:18:41.439Z,98790.48
2019-02-24T17:21:07.724Z,98785.40
2019-02-24T17:23:34.369Z,98797.78
2019-02-24T17:26:00.690Z,98795.09
2019-02-24T17:28:27.266Z,98799.13
2019-02-24T17:30:54.142Z,98794.30
2019-02-24T17:33:29.524Z,98789.50
2019-02-24T17:35:48.797Z,98794.06
2019-02-24T17:38:15.503Z,98786.81
2019-02-24T17:40:41.856Z,98784.13
2019-02-24T17:43:08.255Z,98783.07
2019-02-24T17:45:34.698Z,98780.38
2019-02-24T17:48:00.984Z,98774.72
2019-02-24T17:50:27.711Z,98775.30
2019-02-24T17:52:54.054Z,98779.03
2019-02-24T17:55:20.661Z,98775.30
2019-02-24T17:57:47.234Z,98765.64
2019-02-24T18:00:31.976Z,98765.94
2019-02-24T18:02:58.868Z,98768.06
2019-02-24T18:05:25.265Z,98758.41
2019-02-24T18:07:51.738Z,98764.89
2019-02-24T18:10:18.323Z,98772.96
2019-02-24T18:12:44.930Z,98765.95
2019-02-24T18:15:11.761Z,98772.67
2019-02-24T18:17:38.334Z,98773.73
2019-02-24T18:20:09.335Z,98776.13
2019-02-24T18:22:35.787Z,98788.50
2019-02-24T18:25:03.850Z,98792.19
2019-02-24T18:27:30.240Z,98789.21
2019-02-24T18:29:56.849Z,98782.20
2019-02-24T18:32:23.607Z,98778.68
2019-02-24T18:34:50.036Z,98779.73
2019-02-24T18:37:16.478Z,98775.94
2019-02-24T18:39:43.110Z,98780.50
2019-02-24T18:42:09.442Z,98784.53
2019-02-24T18:44:36.037Z,98784.53
2019-02-24T18:47:02.586Z,98777.81
2019-02-24T18:49:29.362Z,98773.55
2019-02-24T18:51:55.802Z,98774.36
2019-02-24T18:54:22.443Z,98767.06
2019-02-24T18:56:49.211Z,98779.69
2019-02-24T18:59:15.691Z,98778.87
2019-02-24T19:01:42.132Z,98785.30
2019-02-24T19:04:08.759Z,98782.61
2019-02-24T19:06:39.110Z,98793.36
2019-02-24T19:09:04.124Z,98803.59
2019-02-24T19:11:30.466Z,98801.42
2019-02-24T19:13:56.775Z,98805.20
2019-02-24T19:16:23.204Z,98807.89
2019-02-24T19:18:49.704Z,98806.27
2019-02-24T19:21:16.122Z,98807.09
2019-02-24T19:23:45.104Z,98807.38
2019-02-24T19:26:11.409Z,98799.02
2019-02-24T19:28:37.922Z,98796.05
2019-02-24T19:31:04.376Z,98791.48
2019-02-24T19:33:30.793Z,98796.05
2019-02-24T19:35:57.133Z,98797.08
2019-02-24T19:38:23.520Z,98797.56
2019-02-24T19:40:50.037Z,98795.91
2019-02-24T19:43:16.498Z,98803.67
2019-02-24T19:45:43.003Z,98795.33
2019-02-24T19:48:09.437Z,98794.27
2019-02-24T19:50:35.873Z,98798.30
2019-02-24T19:53:02.204Z,98794.22
2019-02-24T19:55:28.612Z,98800.64
2019-02-24T19:57:55.015Z,98805.49
2019-02-24T20:00:25.449Z,98809.23
2019-02-24T20:02:52.068Z,98812.97
2019-02-24T20:05:19.174Z,98811.90
2019-02-24T20:07:46.574Z,98804.60
2019-02-24T20:10:25.293Z,98797.25
2019-02-24T20:12:51.930Z,98803.13
2019-02-24T20:15:18.337Z,98799.28
2019-02-24T20:17:44.896Z,98792.48
2019-02-24T20:20:15.512Z,98793.77
2019-02-24T20:22:41.922Z,98793.75
2019-02-24T20:25:17.111Z,98790.48
2019-02-24T20:27:43.651Z,98799.36
2019-02-24T20:30:23.066Z,98800.17
2019-02-24T20:32:49.609Z,98810.63
2019-02-24T20:35:15.917Z,98812.78
2019-02-24T20:37:42.450Z,98813.60
2019-02-24T20:40:10.856Z,98810.39
2019-02-24T20:42:37.293Z,98815.79
2019-02-24T20:45:08.834Z,98810.18
2019-02-24T20:47:35.803Z,98816.37
2019-02-24T20:50:06.297Z,98816.95
2019-02-24T20:52:32.714Z,98829.63
2019-02-24T20:54:59.128Z,98828.28
2019-02-24T20:57:25.472Z,98833.39
2019-02-24T20:59:51.753Z,98831.80
2019-02-24T21:02:18.325Z,98835.59
2019-02-24T21:04:44.638Z,98831.86
2019-02-24T21:07:11.023Z,98831.05
2019-02-24T21:09:37.610Z,98829.47
2019-02-24T21:12:04.312Z,98830.28
2019-02-24T21:14:30.972Z,98829.23
2019-02-24T21:16:57.741Z,98823.88
2019-02-24T21:19:24.066Z,98818.85
2019-02-24T21:21:50.661Z,98817.27
2019-02-24T21:24:17.116Z,98818.09
2019-02-24T21:26:43.439Z,98815.95
2019-02-24T21:29:10.056Z,98821.33
2019-02-24T21:31:36.599Z,98822.38
2019-02-24T21:34:02.946Z,98832.59
2019-02-24T21:36:29.528Z,98831.78
2019-02-24T21:38:56.038Z,98826.41
2019-02-24T21:41:22.453Z,98825.86
2019-02-24T21:43:49.062Z,98825.28
2019-02-24T21:46:15.596Z,98818.56
2019-02-24T21:48:42.008Z,98813.95
2019-02-24T21:51:08.440Z,98812.31
2019-02-24T21:53:34.748Z,98805.31
2019-02-24T21:56:01.078Z,98810.69
2019-02-24T21:58:27.369Z,98812.31
2019-02-24T22:00:53.711Z,98821.20
2019-02-24T22:03:20.221Z,98818.50
2019-02-24T22:05:46.637Z,98813.37
2019-02-24T22:08:12.949Z,98814.19
2019-02-24T22:10:39.267Z,98819.03
2019-02-24T22:13:05.680Z,98820.14
2019-02-24T22:15:32.197Z,98817.22
2019-02-24T22:17:58.676Z,98819.67
2019-02-24T22:20:25.121Z,98815.14
2019-02-24T22:22:51.693Z,98826.52
2019-02-24T22:25:18.183Z,98827.86
2019-02-24T22:27:44.532Z,98832.19
2019-02-24T22:30:14.268Z,98828.16
2019-02-24T22:32:40.662Z,98822.20
2019-02-24T22:35:08.253Z,98815.42
2019-02-24T22:37:34.645Z,98821.30
2019-02-24T22:40:01.099Z,98828.55
2019-02-24T22:42:27.402Z,98827.20
2019-02-24T22:44:53.748Z,98828.55
2019-02-24T22:47:20.034Z,98825.06
2019-02-24T22:49:46.390Z,98818.93
2019-02-24T22:52:12.691Z,98824.88
2019-02-24T22:54:39.205Z,98820.04
2019-02-24T22:57:05.799Z,98818.45
2019-02-24T22:59:32.315Z,98816.34
2019-02-24T23:01:58.638Z,98821.45
2019-02-24T23:04:24.979Z,98822.27
2019-02-24T23:06:51.401Z,98821.98
2019-02-24T23:09:18.821Z,98814.21
2019-02-24T23:11:45.313Z,98813.97
2019-02-24T23:14:11.711Z,98819.64
2019-02-24T23:16:38.330Z,98819.16
2019-02-24T23:19:04.824Z,98822.11
2019-02-24T23:21:31.280Z,98829.13
2019-02-24T23:23:57.939Z,98829.64
2019-02-24T23:26:24.329Z,98825.88
2019-02-24T23:28:50.637Z,98824.77
2019-02-24T23:31:16.951Z,98826.64
2019-02-24T23:33:43.399Z,98818.82
2019-02-24T23:36:09.789Z,98823.44
2019-02-24T23:38:36.367Z,98825.36
2019-02-24T23:41:02.723Z,98821.03
2019-02-24T23:43:30.671Z,98823.72
2019-02-24T23:45:57.430Z,98814.31
2019-02-24T23:48:23.864Z,98814.03
2019-02-24T23:50:50.328Z,98817.48
2019-02-24T23:53:16.979Z,98815.84
2019-02-24T23:55:43.368Z,98814.72
2019-02-24T23:58:09.860Z,98821.98
